Time;durP1;ratioP1;P1;durP2;ratioP2;P2;SDS_P1;SDS_P2;PMS_P1;PMS_P2;Temp;Humidity;BMP_temperature;BMP_pressure;BME280_temperature;BME280_humidity;BME280_pressure;Samples;Min_cycle;Max_cycle;Signal;HPM_P1;HPM_P2
2022/05/15 00:00:58;;;;;;;4.97;4.67;;;13.30;99.90;;;;;;5054573;28;20213;-66
2022/05/15 00:03:24;;;;;;;5.07;4.87;;;13.20;99.90;;;;;;5053167;28;20561;-66
2022/05/15 00:05:59;;;;;;;5.80;5.50;;;13.20;99.90;;;;;;5052697;28;20171;-66
2022/05/15 00:08:28;;;;;;;6.27;5.87;;;13.20;99.90;;;;;;5054159;28;20696;-66
2022/05/15 00:10:55;;;;;;;5.50;5.30;;;13.20;99.90;;;;;;5054220;28;20174;-66
2022/05/15 00:13:21;;;;;;;4.97;4.77;;;13.10;99.90;;;;;;5052757;28;20190;-66
2022/05/15 00:15:49;;;;;;;5.40;5.20;;;13.20;99.90;;;;;;5052519;28;20174;-66
2022/05/15 00:18:16;;;;;;;5.13;4.93;;;13.10;99.90;;;;;;5053855;28;20202;-66
2022/05/15 00:20:41;;;;;;;4.90;4.70;;;13.10;99.90;;;;;;5052841;28;20257;-66
2022/05/15 00:23:09;;;;;;;5.33;5.13;;;13.00;99.90;;;;;;5054059;28;20565;-66
2022/05/15 00:25:35;;;;;;;4.70;4.50;;;13.00;99.90;;;;;;5053841;28;20195;-66
2022/05/15 00:28:00;;;;;;;4.87;4.67;;;13.00;99.90;;;;;;5053553;28;20573;-66
2022/05/15 00:30:26;;;;;;;4.60;4.40;;;12.90;99.90;;;;;;5034094;28;20178;-66
2022/05/15 00:32:52;;;;;;;4.90;4.70;;;12.70;99.90;;;;;;5033835;28;20288;-66
2022/05/15 00:35:18;;;;;;;5.00;4.73;;;12.60;99.90;;;;;;5052286;28;20202;-66
2022/05/15 00:37:44;;;;;;;5.90;5.63;;;12.60;99.90;;;;;;5052556;28;20684;-66
2022/05/15 00:40:12;;;;;;;5.37;5.17;;;12.60;99.90;;;;;;5053624;28;20167;-66
2022/05/15 00:42:38;;;;;;;5.40;5.20;;;12.60;99.90;;;;;;5052373;28;20550;-66
2022/05/15 00:45:09;;;;;;;5.27;5.07;;;12.60;99.90;;;;;;5053265;28;20159;-66
2022/05/15 00:47:35;;;;;;;4.97;4.77;;;12.50;99.90;;;;;;5052352;28;20183;-67
2022/05/15 00:50:08;;;;;;;6.27;5.77;;;12.40;99.90;;;;;;5053348;28;20189;-66
2022/05/15 00:52:37;;;;;;;5.07;4.87;;;12.40;99.90;;;;;;5053231;28;20206;-66
2022/05/15 00:55:10;;;;;;;5.20;5.00;;;12.40;99.90;;;;;;5053409;28;20218;-66
2022/05/15 00:57:40;;;;;;;5.53;5.33;;;12.30;99.90;;;;;;5053234;28;20302;-66
2022/05/15 01:00:11;;;;;;;5.60;5.30;;;12.30;99.90;;;;;;5069104;28;20170;-66
2022/05/15 01:02:48;;;;;;;5.17;4.97;;;12.30;99.90;;;;;;5072057;28;20198;-66
2022/05/15 01:05:15;;;;;;;6.00;5.70;;;12.30;99.90;;;;;;5073104;28;20232;-66
2022/05/15 01:07:41;;;;;;;6.53;6.23;;;12.30;99.90;;;;;;5061918;28;20523;-66
2022/05/15 01:10:08;;;;;;;5.77;5.57;;;12.30;99.90;;;;;;5053539;28;20185;-66
2022/05/15 01:12:36;;;;;;;6.97;6.63;;;12.30;99.90;;;;;;5053075;28;20234;-66
2022/05/15 01:15:04;;;;;;;6.33;5.90;;;12.20;99.90;;;;;;5052848;28;20537;-67
2022/05/15 01:17:30;;;;;;;5.50;5.30;;;12.20;99.90;;;;;;5052659;28;20698;-66
2022/05/15 01:20:14;;;;;;;5.40;5.20;;;12.20;99.90;;;;;;5052942;28;20178;-66
2022/05/15 01:22:41;;;;;;;5.63;5.43;;;12.20;99.90;;;;;;5052706;28;20202;-66
2022/05/15 01:25:15;;;;;;;5.23;5.03;;;12.20;99.90;;;;;;5052758;28;20648;-66
2022/05/15 01:27:45;;;;;;;7.10;6.47;;;12.20;99.90;;;;;;5052665;28;20293;-66
2022/05/15 01:30:11;;;;;;;5.87;5.57;;;12.10;99.90;;;;;;5052698;28;20174;-66
2022/05/15 01:32:37;;;;;;;4.80;4.60;;;12.00;99.90;;;;;;5052479;28;20477;-67
2022/05/15 01:35:03;;;;;;;5.33;5.03;;;12.00;99.90;;;;;;5052042;28;20186;-66
2022/05/15 01:37:29;;;;;;;5.67;5.40;;;12.00;99.90;;;;;;5052696;28;20768;-66
2022/05/15 01:39:55;;;;;;;5.63;5.33;;;11.90;99.90;;;;;;5052242;28;20175;-66
2022/05/15 01:42:20;;;;;;;6.37;5.97;;;11.80;99.90;;;;;;5051086;28;20210;-66
2022/05/15 01:44:46;;;;;;;5.20;4.90;;;11.70;99.90;;;;;;5052010;28;20587;-66
2022/05/15 01:47:11;;;;;;;6.30;5.87;;;11.70;99.90;;;;;;5052437;28;20174;-66
2022/05/15 01:49:38;;;;;;;5.43;5.23;;;11.70;99.90;;;;;;5052546;28;20535;-66
2022/05/15 01:52:04;;;;;;;5.63;5.33;;;11.70;99.90;;;;;;5052177;28;20195;-66
2022/05/15 01:54:30;;;;;;;5.70;5.50;;;11.70;99.90;;;;;;5050579;28;20183;-66
2022/05/15 01:56:55;;;;;;;5.70;5.50;;;11.60;99.90;;;;;;5051140;28;20269;-66
2022/05/15 01:59:21;;;;;;;6.23;5.93;;;11.60;99.90;;;;;;5051960;28;20197;-66
2022/05/15 02:01:47;;;;;;;6.63;6.27;;;11.50;99.90;;;;;;5032113;28;20195;-66
2022/05/15 02:04:13;;;;;;;5.37;5.07;;;11.50;99.90;;;;;;5032510;28;20198;-68
2022/05/15 02:06:38;;;;;;;7.10;6.50;;;11.50;99.90;;;;;;5050405;28;20173;-66
2022/05/15 02:09:05;;;;;;;13.20;5.00;;;11.40;99.90;;;;;;5051954;28;20175;-66
2022/05/15 02:11:31;;;;;;;4.83;4.63;;;11.40;99.90;;;;;;5051703;28;20206;-67
2022/05/15 02:13:57;;;;;;;5.23;5.03;;;11.30;99.90;;;;;;5051553;28;20231;-66
2022/05/15 02:16:23;;;;;;;5.70;5.40;;;11.20;99.90;;;;;;5050161;28;20179;-66
2022/05/15 02:18:48;;;;;;;4.93;4.73;;;11.30;99.90;;;;;;5052224;28;20213;-66
2022/05/15 02:21:14;;;;;;;4.97;4.77;;;11.30;99.90;;;;;;5051974;28;20381;-66
2022/05/15 02:23:40;;;;;;;5.47;5.27;;;11.30;99.90;;;;;;5051721;28;20167;-66
2022/05/15 02:26:05;;;;;;;5.70;5.40;;;11.30;99.90;;;;;;5051256;28;20627;-66
2022/05/15 02:28:31;;;;;;;8.43;5.53;;;11.20;99.90;;;;;;5051760;28;20190;-66
2022/05/15 02:30:57;;;;;;;6.53;6.23;;;11.20;99.90;;;;;;5051339;28;20182;-66
2022/05/15 02:33:22;;;;;;;5.27;5.00;;;11.20;99.90;;;;;;5050122;28;20199;-66
2022/05/15 02:35:48;;;;;;;5.20;5.00;;;11.20;99.90;;;;;;5050477;28;20206;-66
2022/05/15 02:38:14;;;;;;;6.30;6.00;;;11.20;99.90;;;;;;5049097;28;20643;-66
2022/05/15 02:40:39;;;;;;;5.90;5.60;;;11.20;99.90;;;;;;5051535;28;20680;-66
2022/05/15 02:43:05;;;;;;;5.77;5.57;;;11.10;99.90;;;;;;5049968;28;20202;-66
2022/05/15 02:45:31;;;;;;;6.23;5.93;;;11.20;99.90;;;;;;5050438;28;20178;-66
2022/05/15 02:47:56;;;;;;;5.30;5.10;;;11.10;99.90;;;;;;5051091;28;20235;-66
2022/05/15 02:53:08;;;;;;;6.00;5.70;;;11.00;99.90;;;;;;5051506;28;20201;-66
2022/05/15 02:55:33;;;;;;;5.07;4.87;;;10.90;99.90;;;;;;5050993;28;20707;-66
2022/05/15 02:58:00;;;;;;;5.50;5.20;;;10.90;99.90;;;;;;5050857;28;20237;-65
2022/05/15 03:00:27;;;;;;;6.03;5.73;;;10.90;99.90;;;;;;5053535;28;20171;-65
2022/05/15 03:02:53;;;;;;;6.60;6.20;;;10.90;99.90;;;;;;5053860;28;20292;-66
2022/05/15 03:05:20;;;;;;;6.17;5.87;;;10.90;99.90;;;;;;5056179;28;20174;-66
2022/05/15 03:07:46;;;;;;;6.17;5.77;;;10.90;99.90;;;;;;5055474;28;20167;-66
2022/05/15 03:10:16;;;;;;;5.60;5.40;;;10.90;99.90;;;;;;5055467;28;20182;-66
2022/05/15 03:12:42;;;;;;;5.77;5.47;;;10.90;99.90;;;;;;5076165;28;20190;-67
2022/05/15 03:15:12;;;;;;;6.60;6.30;;;10.80;99.90;;;;;;5077446;28;20206;-67
2022/05/15 03:17:37;;;;;;;6.23;5.93;;;10.80;99.90;;;;;;5077017;28;20213;-66
2022/05/15 03:20:04;;;;;;;6.63;6.33;;;10.90;99.90;;;;;;5064450;28;20464;-66
2022/05/15 03:22:30;;;;;;;6.13;5.83;;;10.90;99.90;;;;;;5055159;28;20190;-66
2022/05/15 03:24:56;;;;;;;7.13;6.73;;;10.90;99.90;;;;;;5054585;28;20536;-66
2022/05/15 03:27:21;;;;;;;6.67;6.33;;;10.90;99.90;;;;;;5053858;28;20183;-66
2022/05/15 03:29:47;;;;;;;6.10;5.80;;;10.80;99.90;;;;;;5054869;28;20185;-66
2022/05/15 03:32:12;;;;;;;7.00;6.60;;;10.80;99.90;;;;;;5053430;28;20806;-66
2022/05/15 03:34:38;;;;;;;6.97;6.57;;;10.80;99.90;;;;;;5054923;28;20174;-66
2022/05/15 03:37:04;;;;;;;5.70;5.50;;;10.80;99.90;;;;;;5053575;28;20198;-66
2022/05/15 03:39:29;;;;;;;6.13;5.50;;;10.70;99.90;;;;;;5054774;28;20302;-67
2022/05/15 03:41:56;;;;;;;6.83;6.43;;;10.70;99.90;;;;;;5053913;28;20806;-66
2022/05/15 03:44:22;;;;;;;7.23;6.83;;;10.70;99.90;;;;;;5053190;28;20179;-66
2022/05/15 03:46:48;;;;;;;5.37;5.17;;;10.60;99.90;;;;;;5053188;28;20174;-66
2022/05/15 03:49:14;;;;;;;5.57;5.27;;;10.70;99.90;;;;;;5054566;28;20183;-66
2022/05/15 03:51:40;;;;;;;5.10;4.90;;;10.80;99.90;;;;;;5054355;28;20221;-66
2022/05/15 03:54:07;;;;;;;5.77;5.57;;;10.80;99.90;;;;;;5054487;28;20220;-66
2022/05/15 03:56:51;;;;;;;5.70;5.40;;;10.70;99.90;;;;;;5054464;28;20534;-66
2022/05/15 03:59:19;;;;;;;6.60;6.30;;;10.80;99.90;;;;;;5034856;28;20550;-66
2022/05/15 04:01:45;;;;;;;5.63;5.43;;;10.80;99.90;;;;;;5035050;28;20184;-66
2022/05/15 04:04:10;;;;;;;6.77;6.47;;;10.80;99.90;;;;;;5054317;28;20649;-66
2022/05/15 04:06:36;;;;;;;7.50;7.10;;;10.80;99.90;;;;;;5054239;28;20213;-66
2022/05/15 04:09:02;;;;;;;8.47;8.07;;;10.90;99.90;;;;;;5054232;28;20516;-66
2022/05/15 04:11:29;;;;;;;8.73;8.00;;;11.00;99.90;;;;;;5051722;28;20171;-66
2022/05/15 04:13:54;;;;;;;6.33;6.03;;;11.00;99.90;;;;;;5053913;28;20179;-66
2022/05/15 04:16:20;;;;;;;6.70;6.40;;;11.10;99.90;;;;;;5053839;28;20171;-66
2022/05/15 04:18:46;;;;;;;6.07;5.77;;;11.10;99.90;;;;;;5053816;28;20205;-66
2022/05/15 04:21:11;;;;;;;7.27;6.87;;;11.10;99.90;;;;;;5054221;28;20209;-66
2022/05/15 04:23:37;;;;;;;6.97;6.67;;;11.30;99.90;;;;;;5052414;28;20175;-66
2022/05/15 04:26:03;;;;;;;7.03;6.63;;;11.40;99.90;;;;;;5053495;28;20485;-66
2022/05/15 04:28:29;;;;;;;7.10;6.70;;;11.50;99.90;;;;;;5053879;28;20183;-66
2022/05/15 04:30:54;;;;;;;6.70;6.20;;;11.60;99.90;;;;;;5053958;28;20581;-66
2022/05/15 04:33:20;;;;;;;6.37;5.97;;;11.70;99.90;;;;;;5053779;28;20217;-66
2022/05/15 04:35:46;;;;;;;6.77;6.23;;;11.90;99.90;;;;;;5053504;28;20589;-66
2022/05/15 04:38:11;;;;;;;7.10;6.80;;;12.00;99.90;;;;;;5052429;28;20206;-66
2022/05/15 04:40:37;;;;;;;6.60;6.30;;;12.20;99.90;;;;;;5053648;28;20167;-66
2022/05/15 04:43:03;;;;;;;6.67;6.27;;;12.50;99.90;;;;;;5052285;28;20264;-66
2022/05/15 04:45:29;;;;;;;5.50;5.27;;;12.70;99.90;;;;;;5053399;28;20217;-66
2022/05/15 04:47:55;;;;;;;5.73;5.43;;;13.00;99.90;;;;;;5053585;28;20170;-66
2022/05/15 04:50:21;;;;;;;5.33;5.13;;;13.20;99.90;;;;;;5053587;28;20171;-66
2022/05/15 04:52:48;;;;;;;5.37;5.17;;;13.50;99.90;;;;;;5053234;28;20206;-66
2022/05/15 04:55:14;;;;;;;5.77;5.47;;;13.80;99.90;;;;;;5051990;28;20189;-66
2022/05/15 04:57:39;;;;;;;5.20;5.00;;;13.90;99.90;;;;;;5053080;28;20205;-66
2022/05/15 05:00:12;;;;;;;5.83;5.63;;;14.00;99.90;;;;;;5069505;28;20174;-66
2022/05/15 05:02:38;;;;;;;8.27;7.47;;;14.10;99.90;;;;;;5073243;28;20182;-66
2022/05/15 05:05:04;;;;;;;5.67;5.30;;;14.10;99.90;;;;;;5071028;28;20185;-66
2022/05/15 05:07:30;;;;;;;5.67;5.37;;;14.20;99.90;;;;;;5053403;28;20511;-66
2022/05/15 05:09:56;;;;;;;8.07;7.33;;;14.30;99.90;;;;;;5053550;28;20650;-66
2022/05/15 05:12:22;;;;;;;5.37;5.17;;;14.40;99.90;;;;;;5052877;28;20342;-66
2022/05/15 05:14:48;;;;;;;4.90;4.70;;;14.50;99.90;;;;;;5053067;28;20179;-66
2022/05/15 05:17:14;;;;;;;6.40;6.10;;;14.50;99.90;;;;;;5052642;28;20552;-66
2022/05/15 05:19:40;;;;;;;5.13;4.87;;;14.60;99.90;;;;;;5052976;28;20686;-66
2022/05/15 05:22:06;;;;;;;5.37;5.10;;;14.70;99.90;;;;;;5052321;28;20194;-66
2022/05/15 05:24:33;;;;;;;5.20;4.70;;;14.80;99.90;;;;;;5052778;28;20175;-66
2022/05/15 05:27:00;;;;;;;5.20;4.87;;;14.90;99.90;;;;;;5052650;28;20698;-66
2022/05/15 05:29:26;;;;;;;5.33;5.03;;;14.90;99.90;;;;;;5052889;28;20228;-66
2022/05/15 05:31:52;;;;;;;5.80;5.50;;;14.90;99.90;;;;;;5052489;28;20205;-66
2022/05/15 05:34:18;;;;;;;5.13;4.93;;;15.10;99.90;;;;;;5052378;28;20254;-66
2022/05/15 05:36:44;;;;;;;4.50;4.30;;;15.20;99.90;;;;;;5052452;28;20185;-66
2022/05/15 05:39:10;;;;;;;4.73;4.53;;;15.40;99.90;;;;;;5051931;28;20201;-66
2022/05/15 05:41:36;;;;;;;4.50;4.30;;;15.80;99.90;;;;;;5052571;28;20225;-66
2022/05/15 05:44:01;;;;;;;4.87;4.60;;;16.20;99.90;;;;;;5051008;28;20213;-66
2022/05/15 05:46:27;;;;;;;5.37;5.07;;;16.50;99.90;;;;;;5052258;28;20174;-66
2022/05/15 05:48:54;;;;;;;4.27;4.07;;;16.80;99.90;;;;;;5052158;28;20632;-66
2022/05/15 05:51:21;;;;;;;4.17;3.97;;;17.10;99.90;;;;;;5050070;28;20653;-67
2022/05/15 05:53:46;;;;;;;4.73;4.53;;;17.50;99.90;;;;;;5051887;28;20579;-66
2022/05/15 05:56:12;;;;;;;3.90;3.70;;;18.00;99.90;;;;;;5051378;28;20166;-66
2022/05/15 05:58:37;;;;;;;4.07;3.90;;;18.40;99.90;;;;;;5050659;28;20217;-67
2022/05/15 06:01:03;;;;;;;9.83;4.27;;;18.90;99.90;;;;;;5032107;28;20170;-66
2022/05/15 06:06:13;;;;;;;4.47;4.27;;;19.40;99.90;;;;;;5051050;28;20185;-66
2022/05/15 06:08:40;;;;;;;4.40;4.20;;;19.40;99.90;;;;;;5050929;28;20175;-66
2022/05/15 06:11:05;;;;;;;5.70;5.20;;;19.40;99.90;;;;;;5051683;28;20206;-67
2022/05/15 06:13:31;;;;;;;4.32;4.13;;;19.60;99.90;;;;;;5052140;28;20660;-67
2022/05/15 06:15:57;;;;;;;5.23;5.03;;;20.00;99.90;;;;;;5051198;28;20201;-66
2022/05/15 06:18:23;;;;;;;4.70;4.50;;;20.40;99.90;;;;;;5050673;28;20439;-68
2022/05/15 06:20:48;;;;;;;4.60;4.30;;;20.80;99.90;;;;;;5051464;28;20187;-68
2022/05/15 06:23:14;;;;;;;4.15;3.95;;;21.00;99.90;;;;;;5051852;28;20195;-67
2022/05/15 06:25:40;;;;;;;4.15;3.95;;;21.30;99.90;;;;;;5051190;28;20187;-67
2022/05/15 06:28:05;;;;;;;7.47;4.80;;;21.50;99.90;;;;;;5051169;28;20186;-67
2022/05/15 06:30:31;;;;;;;4.25;4.05;;;21.60;99.90;;;;;;5051817;28;20186;-68
2022/05/15 06:32:59;;;;;;;4.38;4.18;;;21.60;99.90;;;;;;5051118;28;20622;-67
2022/05/15 06:35:25;;;;;;;5.85;4.57;;;21.70;99.90;;;;;;5050836;28;20231;-67
2022/05/15 06:37:50;;;;;;;6.53;5.07;;;21.80;99.90;;;;;;5049933;28;20206;-68
2022/05/15 06:40:17;;;;;;;6.25;5.68;;;21.80;99.90;;;;;;5050739;28;20186;-67
2022/05/15 06:42:43;;;;;;;3.50;3.40;;;21.80;99.90;;;;;;5051057;28;20630;-67
2022/05/15 06:45:10;;;;;;;3.67;3.50;;;22.00;99.90;;;;;;5051393;28;20167;-67
2022/05/15 06:47:36;;;;;;;3.97;3.78;;;22.10;99.90;;;;;;5051373;28;20190;-70
2022/05/15 06:50:03;;;;;;;3.67;3.58;;;22.20;99.90;;;;;;5051693;28;20194;-71
2022/05/15 06:52:29;;;;;;;3.53;3.42;;;22.20;99.90;;;;;;5051426;28;20198;-69
2022/05/15 06:54:55;;;;;;;4.10;3.90;;;22.30;99.90;;;;;;5049666;28;20189;-66
2022/05/15 06:57:29;;;;;;;4.00;3.80;;;22.40;99.90;;;;;;5042567;28;20214;-67
2022/05/15 07:00:19;;;;;;;3.40;3.30;;;22.70;99.90;;;;;;5051175;28;20186;-67
2022/05/15 07:02:46;;;;;;;3.13;3.03;;;23.00;99.90;;;;;;5050724;28;20191;-67
2022/05/15 07:05:15;;;;;;;3.60;3.40;;;23.20;99.90;;;;;;5048360;28;20178;-67
2022/05/15 07:07:43;;;;;;;3.47;3.30;;;23.50;99.90;;;;;;5051503;28;20585;-67
2022/05/15 07:10:09;;;;;;;5.07;4.65;;;23.60;99.90;;;;;;5051419;28;20232;-67
2022/05/15 07:12:35;;;;;;;3.50;3.30;;;23.80;99.90;;;;;;5051749;28;20186;-67
2022/05/15 07:15:03;;;;;;;4.72;3.25;;;23.70;99.90;;;;;;5050342;28;20213;-68
2022/05/15 07:17:29;;;;;;;5.40;3.50;;;23.70;99.90;;;;;;5051327;28;20190;-67
2022/05/15 07:19:55;;;;;;;3.33;3.22;;;23.60;99.90;;;;;;5051301;28;20190;-67
2022/05/15 07:22:21;;;;;;;4.35;4.05;;;23.70;99.90;;;;;;5051504;28;20190;-67
2022/05/15 07:24:47;;;;;;;3.45;3.22;;;23.70;99.90;;;;;;5051332;28;20190;-67
2022/05/15 07:27:14;;;;;;;2.97;2.85;;;23.60;99.90;;;;;;5051565;28;20170;-67
2022/05/15 07:29:39;;;;;;;3.67;3.47;;;23.60;99.90;;;;;;5051512;28;20178;-67
2022/05/15 07:32:07;;;;;;;6.45;3.97;;;23.70;99.90;;;;;;5061159;28;20195;-66
2022/05/15 07:34:33;;;;;;;2.85;2.75;;;23.90;99.90;;;;;;5072059;28;20179;-66
2022/05/15 07:36:59;;;;;;;3.25;3.15;;;24.10;99.90;;;;;;5073692;28;20186;-67
2022/05/15 07:39:25;;;;;;;2.92;2.83;;;24.10;99.90;;;;;;5073393;28;20402;-67
2022/05/15 07:41:51;;;;;;;3.10;3.00;;;24.30;99.90;;;;;;5063806;28;20248;-68
2022/05/15 07:44:17;;;;;;;3.50;3.30;;;24.60;99.90;;;;;;5052885;28;20258;-67
2022/05/15 07:46:43;;;;;;;2.60;2.40;;;25.00;99.90;;;;;;5054140;28;20189;-68
2022/05/15 07:49:10;;;;;;;2.92;2.70;;;25.40;99.90;;;;;;5056544;28;20274;-68
2022/05/15 07:51:37;;;;;;;2.83;2.67;;;25.70;99.90;;;;;;5057189;28;20273;-68
2022/05/15 07:54:02;;;;;;;3.17;3.08;;;26.00;99.90;;;;;;5056051;28;20257;-68
2022/05/15 07:56:28;;;;;;;2.78;2.67;;;26.30;99.90;;;;;;5054762;28;20254;-68
2022/05/15 07:58:54;;;;;;;2.65;2.55;;;26.30;99.90;;;;;;5055359;28;20202;-67
2022/05/15 08:01:19;;;;;;;3.75;3.45;;;26.50;99.90;;;;;;5059772;28;20177;-68
2022/05/15 08:03:46;;;;;;;3.47;3.28;;;26.70;99.90;;;;;;5058041;28;20221;-68
2022/05/15 08:08:59;;;;;;;2.65;2.55;;;27.70;99.90;;;;;;5056025;28;20648;-68
2022/05/15 08:11:28;;;;;;;3.67;3.28;;;28.30;99.90;;;;;;5053939;28;20177;-68
2022/05/15 08:13:57;;;;;;;2.70;2.60;;;28.60;99.90;;;;;;5055481;28;20183;-68
2022/05/15 08:16:24;;;;;;;3.00;2.90;;;28.50;99.90;;;;;;5054985;28;20261;-68
2022/05/15 08:24:19;;;;;;;3.95;3.75;;;27.90;99.90;;;;;;5071878;28;20197;-69
2022/05/15 08:26:45;;;;;;;2.58;2.47;;;28.00;99.90;;;;;;5066066;28;20170;-69
2022/05/15 08:29:12;;;;;;;2.65;2.55;;;28.10;99.90;;;;;;5068532;28;20196;-68
2022/05/15 08:31:39;;;;;;;3.30;2.40;;;28.30;99.90;;;;;;5067690;28;20273;-68
2022/05/15 08:34:05;;;;;;;2.50;2.40;;;28.40;99.90;;;;;;5068884;28;20205;-69
2022/05/15 08:36:31;;;;;;;3.53;3.25;;;28.40;99.90;;;;;;5069198;28;20175;-68
2022/05/15 08:38:57;;;;;;;4.88;3.63;;;28.40;99.90;;;;;;5067990;28;20302;-68
2022/05/15 08:41:38;;;;;;;3.58;3.38;;;28.40;99.90;;;;;;5065100;28;20179;-68
2022/05/15 08:44:21;;;;;;;2.83;2.72;;;28.10;99.90;;;;;;5052800;28;20186;-67
2022/05/15 08:47:09;;;;;;;3.13;3.03;;;28.10;99.90;;;;;;5053523;28;20163;-67
2022/05/15 08:49:45;;;;;;;2.70;2.60;;;27.60;99.90;;;;;;5053815;28;20650;-67
2022/05/15 08:52:42;;;;;;;2.78;2.67;;;27.30;99.90;;;;;;5053794;28;20281;-66
2022/05/15 08:55:12;;;;;;;2.90;2.80;;;27.10;99.90;;;;;;5053309;28;20179;-66
2022/05/15 08:58:04;;;;;;;2.60;2.50;;;27.00;99.90;;;;;;5052683;28;20691;-68
2022/05/15 09:00:43;;;;;;;2.97;2.88;;;27.20;99.90;;;;;;5053414;28;20637;-67
2022/05/15 09:03:16;;;;;;;4.32;4.13;;;27.20;99.90;;;;;;5053363;28;20186;-67
2022/05/15 09:05:52;;;;;;;2.80;2.70;;;27.70;99.90;;;;;;5053259;28;20167;-66
2022/05/15 09:08:55;;;;;;;2.83;2.67;;;28.10;99.90;;;;;;5053373;28;20553;-67
2022/05/15 09:11:46;;;;;;;2.90;2.80;;;28.20;99.90;;;;;;5053262;28;20639;-67
2022/05/15 09:14:21;;;;;;;3.15;2.90;;;28.30;99.90;;;;;;5053116;28;20167;-66
2022/05/15 09:17:04;;;;;;;6.35;3.63;;;28.10;99.90;;;;;;5052928;28;20172;-66
2022/05/15 09:19:29;;;;;;;2.45;2.35;;;28.10;99.90;;;;;;5053250;28;20279;-68
2022/05/15 09:21:56;;;;;;;2.80;2.70;;;28.10;99.90;;;;;;5053006;28;20187;-67
2022/05/15 09:24:56;;;;;;;3.08;2.97;;;28.20;99.90;;;;;;5052916;28;20229;-66
2022/05/15 09:27:24;;;;;;;2.78;2.67;;;28.50;99.90;;;;;;5053068;28;20182;-67
2022/05/15 09:29:58;;;;;;;2.40;2.30;;;29.00;99.90;;;;;;5052759;28;20175;-67
2022/05/15 09:32:40;;;;;;;2.50;2.40;;;29.30;99.90;;;;;;5052585;28;20269;-67
2022/05/15 09:35:29;;;;;;;2.63;2.53;;;29.60;99.90;;;;;;5052596;28;20640;-67
2022/05/15 09:43:32;;;;;;;2.78;2.67;;;29.60;99.80;;;;;;5053270;28;20584;-66
2022/05/15 09:46:06;;;;;;;2.40;2.30;;;29.30;99.90;;;;;;5052371;28;20229;-66
2022/05/15 09:48:58;;;;;;;2.70;2.60;;;28.80;99.90;;;;;;5052598;28;20204;-66
2022/05/15 09:51:46;;;;;;;2.70;2.60;;;29.10;99.90;;;;;;5052623;28;20236;-66
2022/05/15 09:54:34;;;;;;;2.70;2.60;;;28.80;99.90;;;;;;5052681;28;20257;-66
2022/05/15 09:57:12;;;;;;;2.80;2.70;;;28.90;98.90;;;;;;5052350;28;20178;-66
2022/05/15 09:59:38;;;;;;;2.53;2.42;;;29.20;99.60;;;;;;5052455;28;20228;-66
2022/05/15 10:02:04;;;;;;;2.67;2.58;;;29.30;99.60;;;;;;5052541;28;20179;-66
2022/05/15 10:04:38;;;;;;;2.70;2.60;;;29.50;99.90;;;;;;5052146;28;20167;-66
2022/05/15 10:07:07;;;;;;;2.88;2.78;;;29.80;99.90;;;;;;5052256;28;20258;-66
2022/05/15 10:09:35;;;;;;;2.97;2.88;;;29.70;99.80;;;;;;5051103;28;20182;-66
2022/05/15 10:12:20;;;;;;;2.72;2.58;;;29.90;99.90;;;;;;5052128;28;20190;-66
2022/05/15 10:14:59;;;;;;;2.45;2.35;;;30.00;99.90;;;;;;5050137;28;20535;-66
2022/05/15 10:17:24;;;;;;;5.53;3.00;;;30.30;99.10;;;;;;5052007;28;20194;-66
2022/05/15 10:20:05;;;;;;;2.25;2.15;;;30.60;98.40;;;;;;5052009;28;20250;-66
2022/05/15 10:22:54;;;;;;;2.22;2.13;;;30.70;97.60;;;;;;5050674;28;20191;-66
2022/05/15 10:25:45;;;;;;;2.58;2.47;;;30.90;99.10;;;;;;5052263;28;20226;-66
2022/05/15 10:28:37;;;;;;;2.42;2.33;;;31.00;97.70;;;;;;5028562;28;20190;-66
2022/05/15 10:31:10;;;;;;;3.70;2.53;;;31.50;97.00;;;;;;5052094;28;20179;-66
2022/05/15 10:33:40;;;;;;;2.20;2.10;;;31.50;97.00;;;;;;5051999;28;20173;-66
2022/05/15 10:36:28;;;;;;;2.33;2.22;;;31.40;95.40;;;;;;5050227;28;20174;-67
2022/05/15 10:39:16;;;;;;;2.28;2.17;;;31.60;95.10;;;;;;5021685;28;20226;-66
2022/05/15 10:42:13;;;;;;;2.22;2.13;;;32.00;94.70;;;;;;5051570;28;20213;-66
2022/05/15 10:45:04;;;;;;;2.20;2.10;;;31.80;93.20;;;;;;5050610;28;20544;-66
2022/05/15 10:47:45;;;;;;;2.17;2.08;;;31.60;92.00;;;;;;5051832;28;20225;-65
2022/05/15 10:50:24;;;;;;;3.45;3.25;;;31.20;92.50;;;;;;5051722;28;20204;-65
2022/05/15 10:59:36;;;;;;;2.58;2.38;;;31.80;92.10;;;;;;5051656;28;20236;-66
2022/05/15 11:02:33;;;;;;;2.78;2.65;;;31.70;93.00;;;;;;5051505;28;20197;-65
2022/05/15 11:05:26;;;;;;;2.78;2.38;;;31.70;94.80;;;;;;5051271;28;20578;-66
2022/05/15 11:07:55;;;;;;;2.20;2.10;;;32.10;92.70;;;;;;5051523;28;20593;-67
2022/05/15 11:10:36;;;;;;;3.03;2.83;;;32.20;94.30;;;;;;5051312;28;20253;-66
2022/05/15 11:13:24;;;;;;;2.95;2.15;;;32.50;91.00;;;;;;5051324;28;20195;-66
2022/05/15 11:16:07;;;;;;;2.15;2.05;;;33.00;89.40;;;;;;5050642;28;20167;-66
2022/05/15 11:18:58;;;;;;;2.05;1.95;;;33.50;88.10;;;;;;5051299;28;20293;-66
2022/05/15 11:21:30;;;;;;;2.00;1.90;;;33.50;89.30;;;;;;5053240;28;20253;-67
2022/05/15 11:24:09;;;;;;;1.92;1.83;;;33.80;88.20;;;;;;5055510;28;20171;-66
2022/05/15 11:26:45;;;;;;;2.17;2.08;;;33.60;85.00;;;;;;5054959;28;20632;-65
2022/05/15 11:29:15;;;;;;;2.28;2.17;;;33.30;85.70;;;;;;5055276;28;20185;-65
2022/05/15 11:31:59;;;;;;;2.45;2.35;;;33.10;85.40;;;;;;5055123;28;20195;-65
2022/05/15 11:35:02;;;;;;;3.05;2.85;;;32.90;81.60;;;;;;5055369;28;20667;-66
2022/05/15 11:37:36;;;;;;;3.15;2.95;;;32.50;78.70;;;;;;5054995;28;20285;-66
2022/05/15 11:40:03;;;;;;;2.25;2.15;;;31.80;82.00;;;;;;5055060;28;20197;-66
2022/05/15 11:42:28;;;;;;;2.30;2.20;;;31.80;83.00;;;;;;5054846;28;20572;-66
2022/05/15 11:44:54;;;;;;;2.22;2.13;;;31.60;77.80;;;;;;5054627;28;20250;-66
2022/05/15 11:47:39;;;;;;;7.53;2.40;;;31.40;80.30;;;;;;5054910;28;20171;-66
2022/05/15 11:50:27;;;;;;;2.30;2.20;;;31.20;79.50;;;;;;5054859;28;20171;-66
2022/05/15 11:52:53;;;;;;;2.20;2.10;;;31.30;85.20;;;;;;5054728;28;20222;-66
2022/05/15 11:55:45;;;;;;;2.20;2.10;;;31.70;81.40;;;;;;5054370;28;20719;-66
2022/05/15 11:58:14;;;;;;;2.22;2.13;;;31.90;77.40;;;;;;5054629;28;20202;-66
2022/05/15 12:00:42;;;;;;;2.00;1.90;;;31.90;79.40;;;;;;5054562;28;20637;-66
2022/05/15 12:03:39;;;;;;;2.10;2.00;;;32.30;78.20;;;;;;5054572;28;20561;-66
2022/05/15 12:06:08;;;;;;;2.00;1.90;;;32.70;79.90;;;;;;5053096;28;20520;-66
2022/05/15 12:08:37;;;;;;;2.45;2.35;;;33.10;82.00;;;;;;5054391;28;20333;-65
2022/05/15 12:11:27;;;;;;;2.42;2.33;;;33.10;77.30;;;;;;5054465;28;20249;-67
2022/05/15 12:13:54;;;;;;;2.60;2.50;;;33.00;75.90;;;;;;5054439;28;20181;-66
2022/05/15 12:16:33;;;;;;;2.47;2.38;;;32.60;76.30;;;;;;5069925;28;20175;-67
2022/05/15 12:19:15;;;;;;;2.60;2.50;;;32.70;79.70;;;;;;5070993;28;20198;-66
2022/05/15 12:21:46;;;;;;;2.15;2.05;;;33.00;76.50;;;;;;5071666;28;20237;-67
2022/05/15 12:24:27;;;;;;;2.00;1.90;;;33.30;76.80;;;;;;5072229;28;20178;-67
2022/05/15 12:27:14;;;;;;;3.08;2.72;;;33.30;72.10;;;;;;5054237;28;20660;-67
2022/05/15 12:30:08;;;;;;;1.80;1.70;;;33.50;71.20;;;;;;5054228;28;20175;-66
2022/05/15 12:32:39;;;;;;;2.55;2.45;;;33.90;75.80;;;;;;5052710;28;20681;-67
2022/05/15 12:35:20;;;;;;;2.10;2.00;;;33.90;71.40;;;;;;5051499;28;20266;-67
2022/05/15 12:37:54;;;;;;;2.00;1.90;;;33.90;72.30;;;;;;5053135;28;20246;-67
2022/05/15 12:40:31;;;;;;;2.20;2.10;;;33.90;69.50;;;;;;5053027;28;20205;-66
2022/05/15 12:42:58;;;;;;;1.90;1.80;;;34.00;71.60;;;;;;5054085;28;20609;-66
2022/05/15 12:45:23;;;;;;;1.95;1.85;;;34.00;70.60;;;;;;5053551;28;20187;-66
2022/05/15 12:48:10;;;;;;;2.22;2.13;;;34.10;70.00;;;;;;5053643;28;20179;-66
2022/05/15 12:51:02;;;;;;;2.15;2.05;;;34.30;69.30;;;;;;5053747;28;20178;-67
2022/05/15 12:53:32;;;;;;;2.05;1.92;;;34.00;64.10;;;;;;5053629;28;20236;-65
2022/05/15 12:56:15;;;;;;;4.32;2.45;;;33.10;67.60;;;;;;5053052;28;20173;-65
2022/05/15 12:58:42;;;;;;;2.67;2.58;;;32.60;65.50;;;;;;5053401;28;20199;-66
2022/05/15 13:01:11;;;;;;;2.33;2.22;;;32.70;67.40;;;;;;5053757;28;20254;-66
2022/05/15 13:03:41;;;;;;;1.85;1.75;;;32.80;63.40;;;;;;5053614;28;20174;-67
2022/05/15 13:06:08;;;;;;;2.25;2.15;;;32.90;69.50;;;;;;5053234;28;20163;-66
2022/05/15 13:08:51;;;;;;;2.13;2.03;;;33.10;69.90;;;;;;5053626;28;20648;-66
2022/05/15 13:11:22;;;;;;;2.20;2.10;;;33.30;73.10;;;;;;5053379;28;20175;-66
2022/05/15 13:13:51;;;;;;;2.15;2.05;;;33.30;65.50;;;;;;5053244;28;20257;-66
2022/05/15 13:16:23;;;;;;;2.40;2.28;;;33.20;69.80;;;;;;5052846;28;20262;-66
2022/05/15 13:18:52;;;;;;;2.42;2.33;;;33.20;71.00;;;;;;5053197;28;20194;-66
2022/05/15 13:21:49;;;;;;;2.15;2.05;;;33.30;65.80;;;;;;5053381;28;20159;-66
2022/05/15 13:24:16;;;;;;;2.28;2.17;;;33.00;66.60;;;;;;5041131;28;20193;-66
2022/05/15 13:26:47;;;;;;;2.55;2.45;;;32.80;69.90;;;;;;5052666;28;20206;-66
2022/05/15 13:29:16;;;;;;;2.42;2.33;;;32.60;68.10;;;;;;5052882;28;20169;-66
2022/05/15 13:31:43;;;;;;;2.63;2.53;;;32.30;65.50;;;;;;5052663;28;20195;-65